sensor_id;sensor_type;location;lat;lon;timestamp;temperature;humidity
76120;DHT22;64852;48.092;-1.640;2023-03-01T00:01:48;4.50;99.90
76120;DHT22;64852;48.092;-1.640;2023-03-01T00:04:14;4.10;99.90
76120;DHT22;64852;48.092;-1.640;2023-03-01T00:06:39;3.50;99.90
76120;DHT22;64852;48.092;-1.640;2023-03-01T00:09:05;4.90;99.90
76120;DHT22;64852;48.092;-1.640;2023-03-01T00:11:31;4.00;99.90
76120;DHT22;64852;48.092;-1.640;2023-03-01T00:13:58;4.40;99.90
76120;DHT22;64852;48.092;-1.640;2023-03-01T00:16:25;3.70;99.90
76120;DHT22;64852;48.092;-1.640;2023-03-01T00:18:50;3.10;99.90
76120;DHT22;64852;48.092;-1.640;2023-03-01T00:21:16;3.80;99.90
76120;DHT22;64852;48.092;-1.640;2023-03-01T00:23:42;3.20;99.90
76120;DHT22;64852;48.092;-1.640;2023-03-01T00:26:09;3.40;99.90
76120;DHT22;64852;48.092;-1.640;2023-03-01T00:28:36;3.60;99.90
76120;DHT22;64852;48.092;-1.640;2023-03-01T00:31:03;2.70;99.90
76120;DHT22;64852;48.092;-1.640;2023-03-01T00:33:28;3.60;99.90
76120;DHT22;64852;48.092;-1.640;2023-03-01T00:35:54;3.20;99.90
76120;DHT22;64852;48.092;-1.640;2023-03-01T00:38:19;4.00;99.90
76120;DHT22;64852;48.092;-1.640;2023-03-01T00:40:45;2.80;99.90
76120;DHT22;64852;48.092;-1.640;2023-03-01T00:43:10;2.80;99.90
76120;DHT22;64852;48.092;-1.640;2023-03-01T00:45:36;2.70;99.90
76120;DHT22;64852;48.092;-1.640;2023-03-01T00:48:01;2.80;99.90
76120;DHT22;64852;48.092;-1.640;2023-03-01T00:50:27;4.10;99.90
76120;DHT22;64852;48.092;-1.640;2023-03-01T00:52:53;3.40;99.90
76120;DHT22;64852;48.092;-1.640;2023-03-01T00:55:19;3.70;99.90
76120;DHT22;64852;48.092;-1.640;2023-03-01T00:57:45;2.60;99.90
76120;DHT22;64852;48.092;-1.640;2023-03-01T01:00:10;2.50;99.90
76120;DHT22;64852;48.092;-1.640;2023-03-01T01:02:36;2.50;99.90
76120;DHT22;64852;48.092;-1.640;2023-03-01T01:05:02;2.90;99.90
76120;DHT22;64852;48.092;-1.640;2023-03-01T01:07:28;2.30;99.90
76120;DHT22;64852;48.092;-1.640;2023-03-01T01:09:53;3.40;99.90
76120;DHT22;64852;48.092;-1.640;2023-03-01T01:12:19;2.20;99.90
76120;DHT22;64852;48.092;-1.640;2023-03-01T01:14:44;2.20;99.90
76120;DHT22;64852;48.092;-1.640;2023-03-01T01:17:10;2.20;99.90
76120;DHT22;64852;48.092;-1.640;2023-03-01T01:19:35;2.90;99.90
76120;DHT22;64852;48.092;-1.640;2023-03-01T01:22:01;2.00;99.90
76120;DHT22;64852;48.092;-1.640;2023-03-01T01:24:26;2.20;99.90
76120;DHT22;64852;48.092;-1.640;2023-03-01T01:26:52;2.70;99.90
76120;DHT22;64852;48.092;-1.640;2023-03-01T01:29:17;3.30;99.90
76120;DHT22;64852;48.092;-1.640;2023-03-01T01:31:43;2.10;99.90
76120;DHT22;64852;48.092;-1.640;2023-03-01T01:34:12;2.70;99.90
76120;DHT22;64852;48.092;-1.640;2023-03-01T01:36:38;2.00;99.90
76120;DHT22;64852;48.092;-1.640;2023-03-01T01:39:03;3.10;99.90
76120;DHT22;64852;48.092;-1.640;2023-03-01T01:41:29;2.20;99.90
76120;DHT22;64852;48.092;-1.640;2023-03-01T01:46:37;2.10;99.90
76120;DHT22;64852;48.092;-1.640;2023-03-01T01:49:05;2.40;99.90
76120;DHT22;64852;48.092;-1.640;2023-03-01T01:51:32;2.00;99.90
76120;DHT22;64852;48.092;-1.640;2023-03-01T01:54:05;2.00;99.90
76120;DHT22;64852;48.092;-1.640;2023-03-01T01:56:33;2.90;99.90
76120;DHT22;64852;48.092;-1.640;2023-03-01T01:58:59;2.10;99.90
76120;DHT22;64852;48.092;-1.640;2023-03-01T02:01:27;2.00;99.90
76120;DHT22;64852;48.092;-1.640;2023-03-01T02:03:52;2.00;99.90
76120;DHT22;64852;48.092;-1.640;2023-03-01T02:08:47;2.00;99.90
76120;DHT22;64852;48.092;-1.640;2023-03-01T02:11:14;2.00;99.90
76120;DHT22;64852;48.092;-1.640;2023-03-01T02:13:40;2.00;99.90
76120;DHT22;64852;48.092;-1.640;2023-03-01T02:16:10;3.40;99.90
76120;DHT22;64852;48.092;-1.640;2023-03-01T02:18:36;1.90;99.90
76120;DHT22;64852;48.092;-1.640;2023-03-01T02:21:05;2.50;99.90
76120;DHT22;64852;48.092;-1.640;2023-03-01T02:23:33;2.00;99.90
76120;DHT22;64852;48.092;-1.640;2023-03-01T02:26:05;2.40;99.90
76120;DHT22;64852;48.092;-1.640;2023-03-01T02:28:36;1.90;99.90
76120;DHT22;64852;48.092;-1.640;2023-03-01T02:31:05;1.90;99.90
76120;DHT22;64852;48.092;-1.640;2023-03-01T02:33:51;2.00;99.90
76120;DHT22;64852;48.092;-1.640;2023-03-01T02:36:17;3.00;99.90
76120;DHT22;64852;48.092;-1.640;2023-03-01T02:38:43;3.30;99.90
76120;DHT22;64852;48.092;-1.640;2023-03-01T02:41:10;1.90;99.90
76120;DHT22;64852;48.092;-1.640;2023-03-01T02:43:37;1.90;99.90
76120;DHT22;64852;48.092;-1.640;2023-03-01T02:46:07;1.90;99.90
76120;DHT22;64852;48.092;-1.640;2023-03-01T02:48:40;1.90;99.90
76120;DHT22;64852;48.092;-1.640;2023-03-01T02:53:39;1.70;99.90
76120;DHT22;64852;48.092;-1.640;2023-03-01T02:56:07;1.70;99.90
76120;DHT22;64852;48.092;-1.640;2023-03-01T02:58:39;1.60;99.90
76120;DHT22;64852;48.092;-1.640;2023-03-01T03:01:14;1.60;99.90
76120;DHT22;64852;48.092;-1.640;2023-03-01T03:03:41;1.60;99.90
76120;DHT22;64852;48.092;-1.640;2023-03-01T03:06:07;1.60;99.90
76120;DHT22;64852;48.092;-1.640;2023-03-01T03:08:32;2.80;99.90
76120;DHT22;64852;48.092;-1.640;2023-03-01T03:10:58;1.60;99.90
76120;DHT22;64852;48.092;-1.640;2023-03-01T03:13:23;1.40;99.90
76120;DHT22;64852;48.092;-1.640;2023-03-01T03:15:56;2.50;99.90
76120;DHT22;64852;48.092;-1.640;2023-03-01T03:18:22;1.50;99.90
76120;DHT22;64852;48.092;-1.640;2023-03-01T03:20:51;1.60;99.90
76120;DHT22;64852;48.092;-1.640;2023-03-01T03:23:18;1.40;99.90
76120;DHT22;64852;48.092;-1.640;2023-03-01T03:25:43;1.40;99.90
76120;DHT22;64852;48.092;-1.640;2023-03-01T03:28:09;1.40;99.90
76120;DHT22;64852;48.092;-1.640;2023-03-01T03:30:35;1.40;99.90
76120;DHT22;64852;48.092;-1.640;2023-03-01T03:33:01;2.70;99.90
76120;DHT22;64852;48.092;-1.640;2023-03-01T03:35:28;1.40;99.90
76120;DHT22;64852;48.092;-1.640;2023-03-01T03:37:57;1.40;99.90
76120;DHT22;64852;48.092;-1.640;2023-03-01T03:40:40;2.70;99.90
76120;DHT22;64852;48.092;-1.640;2023-03-01T03:43:07;1.50;99.90
76120;DHT22;64852;48.092;-1.640;2023-03-01T03:45:33;2.40;99.90
76120;DHT22;64852;48.092;-1.640;2023-03-01T03:48:00;0.50;99.90
76120;DHT22;64852;48.092;-1.640;2023-03-01T03:50:26;1.30;99.90
76120;DHT22;64852;48.092;-1.640;2023-03-01T03:52:51;1.40;99.90
76120;DHT22;64852;48.092;-1.640;2023-03-01T03:55:17;1.40;99.90
76120;DHT22;64852;48.092;-1.640;2023-03-01T03:57:45;1.60;99.90
76120;DHT22;64852;48.092;-1.640;2023-03-01T04:00:20;2.80;99.90
76120;DHT22;64852;48.092;-1.640;2023-03-01T04:02:46;1.40;99.90
76120;DHT22;64852;48.092;-1.640;2023-03-01T04:05:12;3.20;99.90
76120;DHT22;64852;48.092;-1.640;2023-03-01T04:07:39;1.20;99.90
76120;DHT22;64852;48.092;-1.640;2023-03-01T04:10:05;1.40;99.90
76120;DHT22;64852;48.092;-1.640;2023-03-01T04:12:32;1.40;99.90
76120;DHT22;64852;48.092;-1.640;2023-03-01T04:14:59;1.50;99.90
76120;DHT22;64852;48.092;-1.640;2023-03-01T04:17:25;1.30;99.90
76120;DHT22;64852;48.092;-1.640;2023-03-01T04:19:51;1.40;99.90
76120;DHT22;64852;48.092;-1.640;2023-03-01T04:22:16;1.20;99.90
76120;DHT22;64852;48.092;-1.640;2023-03-01T04:24:43;1.30;99.90
76120;DHT22;64852;48.092;-1.640;2023-03-01T04:27:09;2.20;99.90
76120;DHT22;64852;48.092;-1.640;2023-03-01T04:29:34;2.00;99.90
76120;DHT22;64852;48.092;-1.640;2023-03-01T04:32:00;1.00;99.90
76120;DHT22;64852;48.092;-1.640;2023-03-01T04:34:25;1.10;99.90
76120;DHT22;64852;48.092;-1.640;2023-03-01T04:36:54;2.30;99.90
76120;DHT22;64852;48.092;-1.640;2023-03-01T04:39:19;1.00;99.90
76120;DHT22;64852;48.092;-1.640;2023-03-01T04:41:45;2.20;99.90
76120;DHT22;64852;48.092;-1.640;2023-03-01T04:44:11;1.50;99.90
76120;DHT22;64852;48.092;-1.640;2023-03-01T04:46:36;1.00;99.90
76120;DHT22;64852;48.092;-1.640;2023-03-01T04:49:02;1.00;99.90
76120;DHT22;64852;48.092;-1.640;2023-03-01T04:51:28;2.30;99.90
76120;DHT22;64852;48.092;-1.640;2023-03-01T04:53:54;0.90;99.90
76120;DHT22;64852;48.092;-1.640;2023-03-01T04:56:20;0.90;99.90
76120;DHT22;64852;48.092;-1.640;2023-03-01T04:58:46;2.10;99.90
76120;DHT22;64852;48.092;-1.640;2023-03-01T05:01:12;0.90;99.90
76120;DHT22;64852;48.092;-1.640;2023-03-01T05:03:41;0.90;99.90
76120;DHT22;64852;48.092;-1.640;2023-03-01T05:06:07;0.90;99.90
76120;DHT22;64852;48.092;-1.640;2023-03-01T05:08:33;1.40;99.90
76120;DHT22;64852;48.092;-1.640;2023-03-01T05:10:59;0.90;99.90
76120;DHT22;64852;48.092;-1.640;2023-03-01T05:13:25;1.00;99.90
76120;DHT22;64852;48.092;-1.640;2023-03-01T05:15:58;0.90;99.90
76120;DHT22;64852;48.092;-1.640;2023-03-01T05:18:24;1.00;99.90
76120;DHT22;64852;48.092;-1.640;2023-03-01T05:20:52;1.10;99.90
76120;DHT22;64852;48.092;-1.640;2023-03-01T05:23:21;1.00;99.90
76120;DHT22;64852;48.092;-1.640;2023-03-01T05:25:47;2.60;99.90
76120;DHT22;64852;48.092;-1.640;2023-03-01T05:28:13;1.60;99.90
76120;DHT22;64852;48.092;-1.640;2023-03-01T05:30:39;1.20;99.90
76120;DHT22;64852;48.092;-1.640;2023-03-01T05:33:05;1.90;99.90
76120;DHT22;64852;48.092;-1.640;2023-03-01T05:35:35;1.30;99.90
76120;DHT22;64852;48.092;-1.640;2023-03-01T05:38:01;2.20;99.90
76120;DHT22;64852;48.092;-1.640;2023-03-01T05:40:27;3.20;99.90
76120;DHT22;64852;48.092;-1.640;2023-03-01T05:42:55;2.30;99.90
76120;DHT22;64852;48.092;-1.640;2023-03-01T05:45:21;1.20;99.90
76120;DHT22;64852;48.092;-1.640;2023-03-01T05:47:48;1.20;99.90
76120;DHT22;64852;48.092;-1.640;2023-03-01T05:50:17;2.40;99.90
76120;DHT22;64852;48.092;-1.640;2023-03-01T05:52:47;1.20;99.90
76120;DHT22;64852;48.092;-1.640;2023-03-01T05:55:14;1.10;99.90
76120;DHT22;64852;48.092;-1.640;2023-03-01T05:57:39;1.00;99.90
76120;DHT22;64852;48.092;-1.640;2023-03-01T06:00:05;1.30;99.90
76120;DHT22;64852;48.092;-1.640;2023-03-01T06:02:31;1.00;99.90
76120;DHT22;64852;48.092;-1.640;2023-03-01T06:04:57;0.90;99.90
76120;DHT22;64852;48.092;-1.640;2023-03-01T06:07:22;0.90;99.90
76120;DHT22;64852;48.092;-1.640;2023-03-01T06:09:48;1.10;99.90
76120;DHT22;64852;48.092;-1.640;2023-03-01T06:12:13;1.10;99.90
76120;DHT22;64852;48.092;-1.640;2023-03-01T06:14:39;1.10;99.90
76120;DHT22;64852;48.092;-1.640;2023-03-01T06:17:04;2.50;99.90
76120;DHT22;64852;48.092;-1.640;2023-03-01T06:19:30;1.20;99.90
76120;DHT22;64852;48.092;-1.640;2023-03-01T06:21:55;1.20;99.90
76120;DHT22;64852;48.092;-1.640;2023-03-01T06:24:21;1.20;99.90
76120;DHT22;64852;48.092;-1.640;2023-03-01T06:26:46;2.00;99.90
76120;DHT22;64852;48.092;-1.640;2023-03-01T06:29:12;1.20;99.90
76120;DHT22;64852;48.092;-1.640;2023-03-01T06:31:37;1.20;99.90
76120;DHT22;64852;48.092;-1.640;2023-03-01T06:34:03;1.60;99.90
76120;DHT22;64852;48.092;-1.640;2023-03-01T06:36:28;1.00;99.90
76120;DHT22;64852;48.092;-1.640;2023-03-01T06:38:54;1.00;99.90
76120;DHT22;64852;48.092;-1.640;2023-03-01T06:41:19;1.10;99.90
76120;DHT22;64852;48.092;-1.640;2023-03-01T06:43:45;1.00;99.90
76120;DHT22;64852;48.092;-1.640;2023-03-01T06:46:10;1.10;99.90
76120;DHT22;64852;48.092;-1.640;2023-03-01T06:48:36;1.10;99.90
76120;DHT22;64852;48.092;-1.640;2023-03-01T06:51:01;2.20;99.90
76120;DHT22;64852;48.092;-1.640;2023-03-01T06:53:27;2.10;99.90
76120;DHT22;64852;48.092;-1.640;2023-03-01T06:55:54;2.50;99.90
76120;DHT22;64852;48.092;-1.640;2023-03-01T06:58:19;2.00;99.90
76120;DHT22;64852;48.092;-1.640;2023-03-01T07:00:44;1.20;99.90
76120;DHT22;64852;48.092;-1.640;2023-03-01T07:03:10;1.10;99.90
76120;DHT22;64852;48.092;-1.640;2023-03-01T07:05:36;1.10;99.90
76120;DHT22;64852;48.092;-1.640;2023-03-01T07:08:01;1.00;99.90
76120;DHT22;64852;48.092;-1.640;2023-03-01T07:10:27;0.90;99.90
76120;DHT22;64852;48.092;-1.640;2023-03-01T07:12:56;0.90;99.90
76120;DHT22;64852;48.092;-1.640;2023-03-01T07:15:21;0.90;99.90
76120;DHT22;64852;48.092;-1.640;2023-03-01T07:17:47;0.80;99.90
76120;DHT22;64852;48.092;-1.640;2023-03-01T07:20:15;0.90;99.90
76120;DHT22;64852;48.092;-1.640;2023-03-01T07:22:41;0.70;99.90
76120;DHT22;64852;48.092;-1.640;2023-03-01T07:25:07;0.90;99.90
76120;DHT22;64852;48.092;-1.640;2023-03-01T07:27:33;0.90;99.90
76120;DHT22;64852;48.092;-1.640;2023-03-01T07:29:58;2.00;99.90
76120;DHT22;64852;48.092;-1.640;2023-03-01T07:32:24;1.50;99.90
76120;DHT22;64852;48.092;-1.640;2023-03-01T07:34:50;0.80;99.90
76120;DHT22;64852;48.092;-1.640;2023-03-01T07:37:16;0.80;99.90
76120;DHT22;64852;48.092;-1.640;2023-03-01T07:39:41;0.90;99.90
76120;DHT22;64852;48.092;-1.640;2023-03-01T07:42:07;0.80;99.90
76120;DHT22;64852;48.092;-1.640;2023-03-01T07:44:33;0.90;99.90
76120;DHT22;64852;48.092;-1.640;2023-03-01T07:46:59;0.80;99.90
76120;DHT22;64852;48.092;-1.640;2023-03-01T07:49:25;2.30;99.90
76120;DHT22;64852;48.092;-1.640;2023-03-01T07:51:54;0.90;99.90
76120;DHT22;64852;48.092;-1.640;2023-03-01T07:54:19;0.90;99.90
76120;DHT22;64852;48.092;-1.640;2023-03-01T07:56:45;0.80;99.90
76120;DHT22;64852;48.092;-1.640;2023-03-01T07:59:10;1.00;99.90
76120;DHT22;64852;48.092;-1.640;2023-03-01T08:01:36;2.10;99.90
76120;DHT22;64852;48.092;-1.640;2023-03-01T08:04:01;1.90;99.90
76120;DHT22;64852;48.092;-1.640;2023-03-01T08:06:27;1.00;99.90
76120;DHT22;64852;48.092;-1.640;2023-03-01T08:08:53;2.10;99.90
76120;DHT22;64852;48.092;-1.640;2023-03-01T08:11:20;2.30;99.90
76120;DHT22;64852;48.092;-1.640;2023-03-01T08:13:47;1.20;99.90
76120;DHT22;64852;48.092;-1.640;2023-03-01T08:16:14;1.20;99.90
76120;DHT22;64852;48.092;-1.640;2023-03-01T08:18:39;1.30;99.90
76120;DHT22;64852;48.092;-1.640;2023-03-01T08:21:06;1.50;99.90
76120;DHT22;64852;48.092;-1.640;2023-03-01T08:23:32;1.60;99.90
76120;DHT22;64852;48.092;-1.640;2023-03-01T08:26:08;1.70;99.90
76120;DHT22;64852;48.092;-1.640;2023-03-01T08:28:34;1.60;99.90
76120;DHT22;64852;48.092;-1.640;2023-03-01T08:31:00;2.60;99.90
76120;DHT22;64852;48.092;-1.640;2023-03-01T08:33:25;1.80;99.90
76120;DHT22;64852;48.092;-1.640;2023-03-01T08:35:51;1.80;99.90
76120;DHT22;64852;48.092;-1.640;2023-03-01T08:38:16;1.70;99.90
76120;DHT22;64852;48.092;-1.640;2023-03-01T08:40:42;3.30;99.90
76120;DHT22;64852;48.092;-1.640;2023-03-01T08:43:07;3.00;99.90
76120;DHT22;64852;48.092;-1.640;2023-03-01T08:45:33;4.00;99.90
76120;DHT22;64852;48.092;-1.640;2023-03-01T08:47:58;2.10;99.90
76120;DHT22;64852;48.092;-1.640;2023-03-01T08:50:24;3.40;99.90
76120;DHT22;64852;48.092;-1.640;2023-03-01T08:52:50;2.20;99.90
76120;DHT22;64852;48.092;-1.640;2023-03-01T08:55:15;2.10;99.90
76120;DHT22;64852;48.092;-1.640;2023-03-01T08:57:42;2.30;99.90
76120;DHT22;64852;48.092;-1.640;2023-03-01T09:00:08;2.50;99.90
76120;DHT22;64852;48.092;-1.640;2023-03-01T09:02:34;2.60;99.90
76120;DHT22;64852;48.092;-1.640;2023-03-01T09:05:00;4.00;99.90
76120;DHT22;64852;48.092;-1.640;2023-03-01T09:07:26;3.20;99.90
76120;DHT22;64852;48.092;-1.640;2023-03-01T09:09:53;2.90;99.90
76120;DHT22;64852;48.092;-1.640;2023-03-01T09:12:19;3.00;99.90
76120;DHT22;64852;48.092;-1.640;2023-03-01T09:14:44;3.80;99.90
76120;DHT22;64852;48.092;-1.640;2023-03-01T09:17:10;3.00;99.90
76120;DHT22;64852;48.092;-1.640;2023-03-01T09:19:36;3.00;99.90
76120;DHT22;64852;48.092;-1.640;2023-03-01T09:22:02;3.10;99.90
76120;DHT22;64852;48.092;-1.640;2023-03-01T09:24:28;3.40;99.90
76120;DHT22;64852;48.092;-1.640;2023-03-01T09:26:54;3.50;99.90
76120;DHT22;64852;48.092;-1.640;2023-03-01T09:29:21;5.00;99.90
76120;DHT22;64852;48.092;-1.640;2023-03-01T09:31:46;3.70;99.90
76120;DHT22;64852;48.092;-1.640;2023-03-01T09:34:12;4.50;99.90
76120;DHT22;64852;48.092;-1.640;2023-03-01T09:36:41;5.00;99.90
76120;DHT22;64852;48.092;-1.640;2023-03-01T09:39:06;5.00;99.90
76120;DHT22;64852;48.092;-1.640;2023-03-01T09:44:18;4.10;99.90
76120;DHT22;64852;48.092;-1.640;2023-03-01T09:46:45;4.20;99.90
76120;DHT22;64852;48.092;-1.640;2023-03-01T09:49:15;4.40;99.90
76120;DHT22;64852;48.092;-1.640;2023-03-01T09:51:42;4.50;99.90
76120;DHT22;64852;48.092;-1.640;2023-03-01T09:54:08;4.50;99.90
76120;DHT22;64852;48.092;-1.640;2023-03-01T10:02:00;4.90;99.90
76120;DHT22;64852;48.092;-1.640;2023-03-01T10:09:35;5.40;99.90
76120;DHT22;64852;48.092;-1.640;2023-03-01T10:12:02;5.50;99.90
76120;DHT22;64852;48.092;-1.640;2023-03-01T10:17:33;5.50;99.90
76120;DHT22;64852;48.092;-1.640;2023-03-01T10:22:38;5.70;99.90
76120;DHT22;64852;48.092;-1.640;2023-03-01T10:25:04;5.80;99.90
76120;DHT22;64852;48.092;-1.640;2023-03-01T10:27:34;5.70;99.90
76120;DHT22;64852;48.092;-1.640;2023-03-01T10:30:11;5.80;99.90
76120;DHT22;64852;48.092;-1.640;2023-03-01T10:32:37;5.90;99.90
76120;DHT22;64852;48.092;-1.640;2023-03-01T10:35:17;6.10;99.90
76120;DHT22;64852;48.092;-1.640;2023-03-01T10:37:56;6.10;99.90
76120;DHT22;64852;48.092;-1.640;2023-03-01T10:40:21;6.20;99.90
76120;DHT22;64852;48.092;-1.640;2023-03-01T10:42:48;6.60;99.90
76120;DHT22;64852;48.092;-1.640;2023-03-01T10:47:40;6.70;99.90
76120;DHT22;64852;48.092;-1.640;2023-03-01T10:50:08;7.20;99.90
76120;DHT22;64852;48.092;-1.640;2023-03-01T10:52:42;6.90;99.90
76120;DHT22;64852;48.092;-1.640;2023-03-01T10:55:23;7.60;99.90
76120;DHT22;64852;48.092;-1.640;2023-03-01T10:57:49;7.20;99.90
76120;DHT22;64852;48.092;-1.640;2023-03-01T11:00:17;7.50;99.90
76120;DHT22;64852;48.092;-1.640;2023-03-01T11:03:08;7.20;99.90
76120;DHT22;64852;48.092;-1.640;2023-03-01T11:05:34;7.20;99.90
76120;DHT22;64852;48.092;-1.640;2023-03-01T11:08:01;8.00;99.90
76120;DHT22;64852;48.092;-1.640;2023-03-01T11:10:32;7.80;99.90
76120;DHT22;64852;48.092;-1.640;2023-03-01T11:15:32;7.80;95.60
76120;DHT22;64852;48.092;-1.640;2023-03-01T11:17:58;8.00;95.70
76120;DHT22;64852;48.092;-1.640;2023-03-01T11:20:24;8.20;99.90
76120;DHT22;64852;48.092;-1.640;2023-03-01T11:22:55;8.20;97.50
76120;DHT22;64852;48.092;-1.640;2023-03-01T11:25:24;8.30;97.50
76120;DHT22;64852;48.092;-1.640;2023-03-01T11:27:50;8.40;90.20
76120;DHT22;64852;48.092;-1.640;2023-03-01T11:35:41;8.50;90.50
76120;DHT22;64852;48.092;-1.640;2023-03-01T11:38:16;8.60;90.80
76120;DHT22;64852;48.092;-1.640;2023-03-01T11:50:57;9.20;99.90
76120;DHT22;64852;48.092;-1.640;2023-03-01T11:56:03;9.60;88.80
76120;DHT22;64852;48.092;-1.640;2023-03-01T11:58:50;9.60;81.10
76120;DHT22;64852;48.092;-1.640;2023-03-01T12:01:24;9.60;89.60
76120;DHT22;64852;48.092;-1.640;2023-03-01T12:04:05;9.70;77.90
76120;DHT22;64852;48.092;-1.640;2023-03-01T12:14:01;9.80;75.70
76120;DHT22;64852;48.092;-1.640;2023-03-01T12:16:42;10.00;73.40
76120;DHT22;64852;48.092;-1.640;2023-03-01T12:21:43;10.30;71.40
76120;DHT22;64852;48.092;-1.640;2023-03-01T12:24:15;10.50;69.00
76120;DHT22;64852;48.092;-1.640;2023-03-01T12:39:44;13.00;62.60
76120;DHT22;64852;48.092;-1.640;2023-03-01T12:42:18;13.40;67.40
76120;DHT22;64852;48.092;-1.640;2023-03-01T12:44:55;13.90;63.70
76120;DHT22;64852;48.092;-1.640;2023-03-01T12:50:03;14.20;62.50
76120;DHT22;64852;48.092;-1.640;2023-03-01T12:55:16;15.10;59.40
76120;DHT22;64852;48.092;-1.640;2023-03-01T12:57:47;14.30;52.10
76120;DHT22;64852;48.092;-1.640;2023-03-01T13:02:48;15.10;58.80
76120;DHT22;64852;48.092;-1.640;2023-03-01T13:08:01;15.60;52.00
76120;DHT22;64852;48.092;-1.640;2023-03-01T13:10:34;15.90;50.60
76120;DHT22;64852;48.092;-1.640;2023-03-01T13:13:02;15.80;50.20
76120;DHT22;64852;48.092;-1.640;2023-03-01T13:15:32;15.80;47.90
76120;DHT22;64852;48.092;-1.640;2023-03-01T13:23:06;16.60;52.00
76120;DHT22;64852;48.092;-1.640;2023-03-01T13:25:32;16.40;45.80
76120;DHT22;64852;48.092;-1.640;2023-03-01T13:30:42;16.00;49.00
76120;DHT22;64852;48.092;-1.640;2023-03-01T13:35:48;17.40;50.40
76120;DHT22;64852;48.092;-1.640;2023-03-01T13:40:59;17.40;42.70
76120;DHT22;64852;48.092;-1.640;2023-03-01T13:43:32;16.80;39.80
76120;DHT22;64852;48.092;-1.640;2023-03-01T13:45:58;16.90;44.80
76120;DHT22;64852;48.092;-1.640;2023-03-01T13:48:28;18.00;48.20
76120;DHT22;64852;48.092;-1.640;2023-03-01T13:50:55;18.70;46.10
76120;DHT22;64852;48.092;-1.640;2023-03-01T13:53:23;18.70;39.10
76120;DHT22;64852;48.092;-1.640;2023-03-01T13:55:58;18.90;43.40
76120;DHT22;64852;48.092;-1.640;2023-03-01T13:58:29;19.40;43.80
76120;DHT22;64852;48.092;-1.640;2023-03-01T14:00:56;19.30;41.00
76120;DHT22;64852;48.092;-1.640;2023-03-01T14:03:22;18.70;38.60
76120;DHT22;64852;48.092;-1.640;2023-03-01T14:08:50;18.60;37.70
76120;DHT22;64852;48.092;-1.640;2023-03-01T14:21:45;19.00;40.70
76120;DHT22;64852;48.092;-1.640;2023-03-01T14:24:18;19.40;37.80
76120;DHT22;64852;48.092;-1.640;2023-03-01T14:26:43;18.70;36.50
76120;DHT22;64852;48.092;-1.640;2023-03-01T14:31:50;20.20;39.20
76120;DHT22;64852;48.092;-1.640;2023-03-01T14:34:20;20.60;36.80
76120;DHT22;64852;48.092;-1.640;2023-03-01T14:36:45;20.70;37.50
76120;DHT22;64852;48.092;-1.640;2023-03-01T14:39:24;20.10;34.10
76120;DHT22;64852;48.092;-1.640;2023-03-01T14:41:50;20.50;36.80
76120;DHT22;64852;48.092;-1.640;2023-03-01T14:44:19;19.70;33.50
76120;DHT22;64852;48.092;-1.640;2023-03-01T14:46:44;19.10;35.10
76120;DHT22;64852;48.092;-1.640;2023-03-01T14:49:11;18.80;34.40
76120;DHT22;64852;48.092;-1.640;2023-03-01T14:51:38;18.30;35.80
76120;DHT22;64852;48.092;-1.640;2023-03-01T14:54:04;18.80;35.70
76120;DHT22;64852;48.092;-1.640;2023-03-01T14:56:42;18.80;34.70
76120;DHT22;64852;48.092;-1.640;2023-03-01T14:59:08;18.00;34.00
76120;DHT22;64852;48.092;-1.640;2023-03-01T15:01:34;17.60;35.50
76120;DHT22;64852;48.092;-1.640;2023-03-01T15:04:00;17.60;37.60
76120;DHT22;64852;48.092;-1.640;2023-03-01T15:06:26;17.90;36.20
76120;DHT22;64852;48.092;-1.640;2023-03-01T15:08:52;18.30;36.80
76120;DHT22;64852;48.092;-1.640;2023-03-01T15:13:48;18.70;36.40
76120;DHT22;64852;48.092;-1.640;2023-03-01T15:16:17;18.20;34.80
76120;DHT22;64852;48.092;-1.640;2023-03-01T15:18:45;17.40;35.20
76120;DHT22;64852;48.092;-1.640;2023-03-01T15:21:21;17.40;36.90
76120;DHT22;64852;48.092;-1.640;2023-03-01T15:24:33;16.80;35.20
76120;DHT22;64852;48.092;-1.640;2023-03-01T15:26:37;17.00;37.50
76120;DHT22;64852;48.092;-1.640;2023-03-01T15:29:04;17.10;36.80
76120;DHT22;64852;48.092;-1.640;2023-03-01T15:31:34;16.20;37.50
76120;DHT22;64852;48.092;-1.640;2023-03-01T15:34:19;16.00;37.40
76120;DHT22;64852;48.092;-1.640;2023-03-01T15:36:46;15.70;37.80
76120;DHT22;64852;48.092;-1.640;2023-03-01T15:39:31;14.20;38.80
76120;DHT22;64852;48.092;-1.640;2023-03-01T15:45:06;13.00;40.80
76120;DHT22;64852;48.092;-1.640;2023-03-01T15:47:32;12.40;42.50
76120;DHT22;64852;48.092;-1.640;2023-03-01T15:49:59;11.90;44.30
76120;DHT22;64852;48.092;-1.640;2023-03-01T15:52:27;11.40;44.90
76120;DHT22;64852;48.092;-1.640;2023-03-01T15:54:56;11.40;45.00
76120;DHT22;64852;48.092;-1.640;2023-03-01T15:57:22;11.30;46.00
76120;DHT22;64852;48.092;-1.640;2023-03-01T15:59:48;11.60;45.60
76120;DHT22;64852;48.092;-1.640;2023-03-01T16:02:14;11.70;45.10
76120;DHT22;64852;48.092;-1.640;2023-03-01T16:04:40;11.50;45.90
76120;DHT22;64852;48.092;-1.640;2023-03-01T16:07:05;11.50;46.50
76120;DHT22;64852;48.092;-1.640;2023-03-01T16:09:31;11.10;47.20
76120;DHT22;64852;48.092;-1.640;2023-03-01T16:11:57;10.90;47.20
76120;DHT22;64852;48.092;-1.640;2023-03-01T16:14:22;10.80;48.60
76120;DHT22;64852;48.092;-1.640;2023-03-01T16:16:48;10.40;49.00
76120;DHT22;64852;48.092;-1.640;2023-03-01T16:19:14;10.30;49.10
76120;DHT22;64852;48.092;-1.640;2023-03-01T16:21:40;10.10;49.80
76120;DHT22;64852;48.092;-1.640;2023-03-01T16:24:07;10.10;49.90
76120;DHT22;64852;48.092;-1.640;2023-03-01T16:26:36;10.00;50.70
76120;DHT22;64852;48.092;-1.640;2023-03-01T16:29:02;10.40;50.00
76120;DHT22;64852;48.092;-1.640;2023-03-01T16:31:28;10.20;50.30
76120;DHT22;64852;48.092;-1.640;2023-03-01T16:33:57;10.00;50.80
76120;DHT22;64852;48.092;-1.640;2023-03-01T16:36:24;9.90;51.00
76120;DHT22;64852;48.092;-1.640;2023-03-01T16:38:50;10.00;51.40
76120;DHT22;64852;48.092;-1.640;2023-03-01T16:41:16;9.90;51.40
76120;DHT22;64852;48.092;-1.640;2023-03-01T16:43:42;9.80;51.70
76120;DHT22;64852;48.092;-1.640;2023-03-01T16:46:11;9.70;51.90
76120;DHT22;64852;48.092;-1.640;2023-03-01T16:48:37;9.60;51.40
76120;DHT22;64852;48.092;-1.640;2023-03-01T16:51:03;9.70;52.00
76120;DHT22;64852;48.092;-1.640;2023-03-01T16:53:29;9.40;53.00
76120;DHT22;64852;48.092;-1.640;2023-03-01T16:55:55;9.90;53.10
76120;DHT22;64852;48.092;-1.640;2023-03-01T16:58:21;9.40;53.60
76120;DHT22;64852;48.092;-1.640;2023-03-01T17:00:50;9.40;53.70
76120;DHT22;64852;48.092;-1.640;2023-03-01T17:03:16;9.80;54.30
76120;DHT22;64852;48.092;-1.640;2023-03-01T17:05:42;9.10;53.20
76120;DHT22;64852;48.092;-1.640;2023-03-01T17:08:07;9.20;53.50
76120;DHT22;64852;48.092;-1.640;2023-03-01T17:10:33;9.20;53.90
76120;DHT22;64852;48.092;-1.640;2023-03-01T17:12:58;9.50;54.30
76120;DHT22;64852;48.092;-1.640;2023-03-01T17:15:24;9.10;54.40
76120;DHT22;64852;48.092;-1.640;2023-03-01T17:17:49;9.50;55.90
76120;DHT22;64852;48.092;-1.640;2023-03-01T17:20:16;8.60;55.10
76120;DHT22;64852;48.092;-1.640;2023-03-01T17:22:41;8.60;55.20
76120;DHT22;64852;48.092;-1.640;2023-03-01T17:25:08;8.60;55.30
76120;DHT22;64852;48.092;-1.640;2023-03-01T17:27:35;8.70;54.90